Terminal Aerodrome Forecast
Issued by NWS

Home | Current Version | Previous Version | Text Only | Print | Product List | Glossary On
Versions: 1 2 3 4 5 6 7 8 9 10 11 12 13 14 15 16 17 18 19 20 21 22
227
FTUS43 KIND 261720
TAFBMG
TAF
KBMG 261720Z 2618/2718 29007KT P6SM FEW020 BKN200
     FM262030 26006KT P6SM SCT200
     FM270000 25002KT P6SM SKC
     FM271430 24011KT P6SM SKC=

USA.gov is the U.S. government's official web portal to all federal, state and local government web resources and services.